Maple Grove, MN (55311)

5:15 AM CDT on March 29, 2015 (GMT -0500)
North Rice Lake | | Change Station
CLOSE
Current Station
Personal Weather Station
Location: Maple Grove, MN
Elevation: 896 ft
Nearby Weather Stations
Active Advisory: Wind Advisory

Elev 896 ft 45.12 °N, 93.48 °W | Updated 6 minutes ago

Rain
Rain
36.0 °F
Feels Like 32 °F
N
5.3
Wind Variable Wind from South

Today
High -- | Low -- °F
--% Chance of Precip.
Yesterday
High -- | Low -- °F
Precip. -- in
7:00 AM 7:37 PM
Waxing Gibbous, 70% visible
Pressure 29.72 in
Visibility 10.0 miles
Clouds Overcast 7000 ft
Windchill 32 °F
Dew Point 36 °F
Humidity 98%
Rainfall 0.10 in
Snow Depth Not available.
UV 0 out of 12
Pollen 1.80 out of 12
Air Quality Not available.
Flu Activity Not available.
METAR KMIC 290953Z AUTO 16014G19KT 10SM -RA OVC070 02/M01 A2970 RMK AO2 SLP064 P0007 T00221006 TSNO

More Conditions Fewer Conditions

Pressure 29.72 in
Visibility 10.0 miles
Clouds Overcast 7000 ft
Windchill 32 °F
Dew Point 36 °F
Humidity 98%
Rainfall 0.10 in
Snow Depth Not available.
UV 0 out of 12
Pollen 1.80 out of 12
Air Quality Not available.
Flu Activity Not available.
METAR KMIC 290953Z AUTO 16014G19KT 10SM -RA OVC070 02/M01 A2970 RMK AO2 SLP064 P0007 T00221006 TSNO

More Conditions Fewer Conditions

10-Day Weather Forecast

Almanac

Astronomy

Mar. 29, 2015 Rise Set
Actual Time
Civil Twilight
Nautical Twilight
Astronomical Twilight
Moon
Length of Visible Light
Length of Day
Tomorrow will be .
, % of the Moon is Illuminated

Today's Extremes

State Highs State Lows

Community

WunderPhotos

Upload Photos

1,809,212 photos uploaded!

WunderBlogs® & News

Nearby

Air Quality

  Air Quality AQ Index Pollutant
Not available.

Snow Depth

Station Depth Elevation

Earthquake Activity

City Distance Mag. Time & Date
Minimum magnitude displayed is 2.5.

Coastal Water Temperatures

Place Temperature

Stations

Nearby Weather Stations

Station Location Temp. Windchill Dew Point Humidity Wind Precip. Elev Updated Type
                   
Wind Advisory
Statement as of 4:08 AM CDT on March 29, 2015

... Wind Advisory in effect from 11 am this morning to 6 PM CDT
this evening...

The National Weather Service in Twin Cities/Chanhassen has issued
a Wind Advisory... which is in effect from 11 am this morning to
6 PM CDT this evening.

* Timing... from late morning through the afternoon.

* Winds... northwest 30 to 35 mph with gusts near 45 mph.

* Impacts... driving may be difficult at times... especially for
high profile and light weight vehicles. Unsecured outdoor
items will be blown around.

Precautionary/preparedness actions...

A Wind Advisory means that sustained winds of 30 to 39 mph or
gusts between 45 and 57 mph are expected. Winds this strong can
make driving difficult... especially for high profile vehicles.
Use extra caution.